Time;durP1;ratioP1;P1;durP2;ratioP2;P2;SDS_P1;SDS_P2;PMS_P1;PMS_P2;Temp;Humidity;BMP_temperature;BMP_pressure;BME280_temperature;BME280_humidity;BME280_pressure;Samples;Min_cycle;Max_cycle;Signal;HPM_P1;HPM_P2
2022/09/15 00:00:25;;;;;;;0.20;0.20;;;;;;;16.56;73.15;100631.47;2088399;28;20408;-68
2022/09/15 00:01:28;;;;;;;0.20;0.20;;;;;;;16.58;73.52;100634.59;2090240;28;20049;-69
2022/09/15 00:02:30;;;;;;;0.10;0.10;;;;;;;16.55;72.86;100641.63;2090681;28;20061;-68
2022/09/15 00:03:35;;;;;;;0.20;0.20;;;;;;;16.55;72.56;100632.66;2089376;28;20076;-68
2022/09/15 00:04:36;;;;;;;0.20;0.20;;;;;;;16.54;73.00;100633.81;2091055;28;20045;-68
2022/09/15 00:05:39;;;;;;;0.20;0.20;;;;;;;16.56;73.02;100636.91;2090053;28;20488;-68
2022/09/15 00:06:43;;;;;;;0.10;0.10;;;;;;;16.57;72.88;100631.09;2090064;28;20423;-67
2022/09/15 00:07:46;;;;;;;0.20;0.20;;;;;;;16.57;72.78;100633.03;2089984;28;20049;-68
2022/09/15 00:08:49;;;;;;;0.10;0.10;;;;;;;16.57;72.52;100633.03;2090097;28;20063;-68
2022/09/15 00:09:51;;;;;;;0.20;0.20;;;;;;;16.58;72.56;100629.16;2089354;28;20084;-68
2022/09/15 00:10:57;;;;;;;0.20;0.20;;;;;;;16.58;71.81;100638.13;2087430;28;20055;-69
2022/09/15 00:11:59;;;;;;;0.20;0.20;;;;;;;16.58;72.17;100640.06;2089953;28;20094;-68
2022/09/15 00:13:02;;;;;;;0.20;0.20;;;;;;;16.59;71.85;100641.59;2089372;28;20053;-69
2022/09/15 00:14:06;;;;;;;0.20;0.20;;;;;;;16.58;71.84;100638.13;2090393;28;20064;-68
2022/09/15 00:15:13;;;;;;;0.20;0.20;;;;;;;16.59;71.39;100630.69;2088627;28;20049;-68
2022/09/15 00:16:17;;;;;;;0.20;0.20;;;;;;;16.58;71.85;100635.38;2087242;28;20541;-68
2022/09/15 00:17:21;;;;;;;0.20;0.20;;;;;;;16.58;71.41;100632.66;2089963;28;20052;-68
2022/09/15 00:18:23;;;;;;;0.10;0.10;;;;;;;16.59;71.39;100636.94;2089562;28;20079;-68
2022/09/15 00:19:27;;;;;;;0.20;0.20;;;;;;;16.62;71.25;100640.84;2089409;28;20175;-68
2022/09/15 00:20:29;;;;;;;0.20;0.20;;;;;;;16.61;71.33;100644.72;2091273;28;20439;-68
2022/09/15 00:21:35;;;;;;;0.20;0.20;;;;;;;16.64;71.43;100643.94;2090915;28;20099;-68
2022/09/15 00:22:37;;;;;;;0.20;0.20;;;;;;;16.64;70.94;100642.03;2089612;28;20059;-68
2022/09/15 00:23:41;;;;;;;0.20;0.20;;;;;;;16.64;70.67;100644.75;2087357;28;20056;-68
2022/09/15 00:24:43;;;;;;;0.20;0.20;;;;;;;16.63;70.43;100643.19;2090008;28;20057;-68
2022/09/15 00:25:49;;;;;;;0.20;0.20;;;;;;;16.65;70.33;100645.53;2089587;28;21014;-68
2022/09/15 00:26:51;;;;;;;0.20;0.20;;;;;;;16.63;70.97;100639.69;2091157;28;20090;-68
2022/09/15 00:27:55;;;;;;;0.20;0.20;;;;;;;16.64;69.89;100652.13;2089665;28;20075;-68
2022/09/15 00:28:58;;;;;;;0.20;0.20;;;;;;;16.65;69.78;100645.53;2089018;28;20543;-68
2022/09/15 00:30:02;;;;;;;0.20;0.20;;;;;;;16.63;69.69;100653.31;2090503;28;20052;-69
2022/09/15 00:31:08;;;;;;;0.15;0.15;;;;;;;16.64;69.32;100649.41;2090464;28;20117;-69
2022/09/15 00:32:11;;;;;;;0.13;0.13;;;;;;;16.61;69.50;100645.53;2090900;28;20048;-69
2022/09/15 00:33:14;;;;;;;0.20;0.20;;;;;;;16.61;69.58;100650.19;2090262;28;20090;-68
2022/09/15 00:34:17;;;;;;;0.17;0.17;;;;;;;16.62;69.21;100657.97;2089766;28;20122;-68
2022/09/15 00:35:19;;;;;;;0.20;0.20;;;;;;;16.63;69.25;100654.09;2089162;28;20045;-68
2022/09/15 00:36:24;;;;;;;0.20;0.20;;;;;;;16.61;69.09;100656.41;2090391;28;20077;-68
2022/09/15 00:37:25;;;;;;;0.20;0.20;;;;;;;16.61;69.20;100656.41;2090061;28;20048;-68
2022/09/15 00:38:28;;;;;;;0.20;0.20;;;;;;;16.61;69.25;100652.91;2088557;28;20044;-67
2022/09/15 00:39:30;;;;;;;0.10;0.10;;;;;;;16.59;69.47;100649.78;2081725;28;20053;-67
2022/09/15 00:40:33;;;;;;;0.10;0.10;;;;;;;16.58;69.50;100648.22;2088054;28;20052;-67
2022/09/15 00:41:37;;;;;;;0.20;0.20;;;;;;;16.58;69.83;100648.22;2090109;28;20429;-67
2022/09/15 00:42:40;;;;;;;0.20;0.20;;;;;;;16.57;69.47;100646.69;2089223;28;20053;-68
2022/09/15 00:43:46;;;;;;;0.20;0.20;;;;;;;16.60;69.57;100651.34;2089574;28;20059;-68
2022/09/15 00:44:54;;;;;;;0.20;0.20;;;;;;;16.58;69.54;100649.00;2089745;28;20056;-68
2022/09/15 00:45:56;;;;;;;0.15;0.15;;;;;;;16.58;69.54;100651.75;2090103;28;20407;-69
2022/09/15 00:47:03;;;;;;;0.20;0.20;;;;;;;16.59;69.56;100647.06;2089003;28;20097;-68
2022/09/15 00:48:22;;;;;;;0.10;0.10;;;;;;;16.56;69.76;100650.56;2083033;28;20471;-68
2022/09/15 00:49:28;;;;;;;0.17;0.17;;;;;;;16.58;69.95;100648.22;2089512;28;20524;-68
2022/09/15 00:50:33;;;;;;;0.20;0.20;;;;;;;16.58;69.80;100651.75;2089765;28;20048;-69
2022/09/15 00:51:40;;;;;;;0.20;0.20;;;;;;;16.55;69.64;100649.00;2089274;28;20056;-69
2022/09/15 00:52:47;;;;;;;0.20;0.20;;;;;;;16.54;69.31;100645.47;2089098;28;20060;-68
2022/09/15 00:53:51;;;;;;;0.13;0.13;;;;;;;16.54;69.25;100650.19;2090303;28;20124;-68
2022/09/15 00:54:58;;;;;;;0.20;0.20;;;;;;;16.55;69.05;100657.19;2090177;28;20053;-68
2022/09/15 00:56:02;;;;;;;0.10;0.10;;;;;;;16.53;69.21;100645.88;2087873;28;20727;-67
2022/09/15 00:57:09;;;;;;;0.10;0.10;;;;;;;16.53;68.85;100651.31;2090116;28;20044;-68
2022/09/15 00:58:16;;;;;;;0.20;0.20;;;;;;;16.52;68.82;100657.94;2089953;28;20856;-68
2022/09/15 00:59:23;;;;;;;0.20;0.20;;;;;;;16.51;68.88;100656.41;2090093;28;20511;-68
2022/09/15 01:00:26;;;;;;;0.20;0.20;;;;;;;16.51;69.11;100656.41;2089930;28;20049;-67
2022/09/15 01:01:31;;;;;;;0.20;0.20;;;;;;;16.51;69.05;100659.13;2090108;28;20048;-67
2022/09/15 01:02:36;;;;;;;0.20;0.20;;;;;;;16.51;68.76;100653.66;2089942;28;20061;-67
2022/09/15 01:03:39;;;;;;;0.20;0.20;;;;;;;16.49;69.41;100654.03;2089641;28;20119;-67
2022/09/15 01:04:41;;;;;;;0.13;0.13;;;;;;;16.51;68.92;100662.59;2089902;28;20049;-67
2022/09/15 01:05:47;;;;;;;0.10;0.10;;;;;;;16.51;69.09;100650.94;2086527;28;20048;-67
2022/09/15 01:06:56;;;;;;;0.20;0.20;;;;;;;16.52;69.06;100660.66;2090733;28;20514;-68
2022/09/15 01:08:02;;;;;;;0.15;0.15;;;;;;;16.50;69.03;100666.50;2089793;28;20094;-67
2022/09/15 01:09:11;;;;;;;0.20;0.20;;;;;;;16.51;69.09;100662.59;2090003;28;20053;-68
2022/09/15 01:10:17;;;;;;;0.20;0.20;;;;;;;16.49;69.06;100658.72;2090076;28;20057;-68
2022/09/15 01:11:19;;;;;;;0.20;0.20;;;;;;;16.51;69.22;100664.56;2088973;28;20345;-68
2022/09/15 01:12:24;;;;;;;0.20;0.20;;;;;;;16.49;68.97;100659.47;2089022;28;20056;-68
2022/09/15 01:13:28;;;;;;;0.20;0.20;;;;;;;16.50;69.31;100654.81;2090186;28;20484;-68
2022/09/15 01:14:31;;;;;;;0.20;0.20;;;;;;;16.49;69.23;100656.75;2089657;28;20498;-68
2022/09/15 01:15:58;;;;;;;0.20;0.20;;;;;;;16.41;69.31;100657.88;2089004;28;20060;-68
2022/09/15 01:17:06;;;;;;;0.20;0.20;;;;;;;16.43;69.58;100656.34;2089139;28;20412;-68
2022/09/15 01:18:16;;;;;;;0.20;0.20;;;;;;;16.44;69.27;100660.63;2089623;28;20052;-68
2022/09/15 01:19:50;;;;;;;0.20;0.20;;;;;;;16.36;69.55;100658.25;2089132;28;20053;-68
2022/09/15 01:21:05;;;;;;;0.20;0.20;;;;;;;16.38;69.58;100658.63;2087868;28;20064;-69
2022/09/15 01:22:16;;;;;;;0.20;0.20;;;;;;;16.37;69.49;100660.59;2089688;28;20055;-69
2022/09/15 01:23:44;;;;;;;0.13;0.13;;;;;;;16.34;69.31;100672.25;2089720;28;20053;-67
2022/09/15 01:25:01;;;;;;;0.20;0.20;;;;;;;16.26;69.10;100672.59;2089173;28;20052;-67
2022/09/15 01:26:37;;;;;;;0.20;0.20;;;;;;;16.22;69.90;100674.53;2089687;28;20060;-68
2022/09/15 01:28:24;;;;;;;0.20;0.20;;;;;;;16.08;71.73;100669.78;2089649;28;20045;-68
2022/09/15 01:30:10;;;;;;;0.20;0.20;;;;;;;16.04;72.87;100663.56;2089785;28;20052;-67
2022/09/15 01:31:17;;;;;;;0.20;0.20;;;;;;;16.03;72.38;100663.94;2072349;28;20050;-67
2022/09/15 01:33:50;;;;;;;0.20;0.20;;;;;;;15.99;72.79;100669.34;2077144;28;20061;-67
2022/09/15 01:35:01;;;;;;;0.22;0.22;;;;;;;15.96;73.29;100667.41;2081635;28;20052;-68
2022/09/15 01:36:10;;;;;;;0.13;0.13;;;;;;;15.96;73.04;100675.56;2089362;28;20049;-68
2022/09/15 01:37:16;;;;;;;0.20;0.20;;;;;;;15.92;73.21;100666.56;2089751;28;20099;-68
2022/09/15 01:38:30;;;;;;;0.20;0.20;;;;;;;15.88;73.40;100670.44;2089820;28;20064;-68
2022/09/15 01:39:38;;;;;;;0.20;0.20;;;;;;;15.86;73.22;100664.59;2089014;28;20411;-68
2022/09/15 01:40:46;;;;;;;0.20;0.20;;;;;;;15.80;72.78;100666.91;2088604;28;20049;-69
2022/09/15 01:41:53;;;;;;;0.20;0.20;;;;;;;15.78;72.87;100680.09;2084254;28;20564;-68
2022/09/15 01:42:57;;;;;;;0.20;0.20;;;;;;;15.77;73.06;100666.88;2083918;28;20091;-67
2022/09/15 01:44:05;;;;;;;0.20;0.20;;;;;;;15.75;72.93;100669.97;2088514;28;20048;-68
2022/09/15 01:45:14;;;;;;;0.20;0.20;;;;;;;15.75;72.61;100677.34;2089981;28;20052;-69
2022/09/15 01:46:19;;;;;;;0.10;0.10;;;;;;;15.74;72.52;100673.09;2089973;28;20063;-68
2022/09/15 01:47:24;;;;;;;0.20;0.20;;;;;;;15.75;72.29;100675.44;2088662;28;20582;-69
2022/09/15 01:48:29;;;;;;;0.20;0.20;;;;;;;15.73;72.08;100672.28;2089393;28;20044;-67
2022/09/15 01:49:37;;;;;;;0.20;0.20;;;;;;;15.70;71.97;100678.50;2089027;28;20053;-68
2022/09/15 01:50:46;;;;;;;0.20;0.20;;;;;;;15.72;72.01;100675.38;2089031;28;20083;-68
2022/09/15 01:51:52;;;;;;;0.10;0.10;;;;;;;15.72;71.75;100681.63;2089383;28;20049;-68
2022/09/15 01:52:58;;;;;;;0.20;0.20;;;;;;;15.73;71.24;100671.53;2089713;28;20057;-68
2022/09/15 01:54:03;;;;;;;0.20;0.20;;;;;;;15.73;70.96;100680.47;2089552;28;20437;-68
2022/09/15 01:55:11;;;;;;;0.17;0.17;;;;;;;15.75;70.75;100680.06;2088964;28;20049;-67
2022/09/15 01:56:14;;;;;;;0.10;0.10;;;;;;;15.73;70.89;100683.19;2089498;28;20052;-67
2022/09/15 01:57:20;;;;;;;0.20;0.20;;;;;;;15.77;70.98;100680.50;2089914;28;20730;-68
2022/09/15 01:58:23;;;;;;;0.20;0.20;;;;;;;15.78;70.46;100690.19;2088142;28;20048;-68
2022/09/15 01:59:25;;;;;;;0.30;0.30;;;;;;;15.78;70.39;100684.75;2087091;28;20385;-68
2022/09/15 02:00:33;;;;;;;0.20;0.20;;;;;;;15.79;70.11;100689.81;2085922;28;20049;-68
2022/09/15 02:01:43;;;;;;;0.20;0.20;;;;;;;15.78;70.43;100691.00;2081111;28;20572;-68
2022/09/15 02:02:48;;;;;;;;;;;;;;;15.58;70.44;100684.25;2079044;28;20053;-69
2022/09/15 02:03:54;;;;;;;0.20;0.20;;;;;;;15.70;70.40;100694.03;2087921;28;20300;-68
2022/09/15 02:05:02;;;;;;;0.15;0.15;;;;;;;15.72;70.24;100692.50;2088344;28;21753;-69
2022/09/15 02:06:13;;;;;;;0.20;0.20;;;;;;;15.74;70.22;100690.19;2089619;28;20059;-68
2022/09/15 02:07:25;;;;;;;0.10;0.10;;;;;;;15.75;70.12;100691.75;2089280;28;20091;-68
2022/09/15 02:08:37;;;;;;;0.10;0.10;;;;;;;15.74;69.96;100690.19;2090304;28;20059;-69
2022/09/15 02:09:45;;;;;;;0.20;0.20;;;;;;;15.76;69.96;100692.53;2089018;28;20428;-68
2022/09/15 02:10:57;;;;;;;0.13;0.13;;;;;;;15.78;69.82;100687.47;2088690;28;20143;-68
2022/09/15 02:12:12;;;;;;;0.10;0.10;;;;;;;15.78;69.52;100687.47;2087627;28;20534;-68
2022/09/15 02:13:24;;;;;;;0.20;0.20;;;;;;;15.78;69.61;100685.56;2089665;28;20040;-68
2022/09/15 02:14:46;;;;;;;0.20;0.20;;;;;;;15.76;69.70;100687.84;2090319;28;20087;-67
2022/09/15 02:15:56;;;;;;;0.20;0.20;;;;;;;15.78;69.39;100679.31;2089648;28;20064;-68
2022/09/15 02:17:00;;;;;;;0.17;0.17;;;;;;;15.75;69.13;100686.31;2086701;28;20059;-68
2022/09/15 02:18:07;;;;;;;0.20;0.20;;;;;;;15.78;68.91;100691.00;2088850;28;20466;-68
2022/09/15 02:19:20;;;;;;;0.20;0.20;;;;;;;15.79;68.37;100691.78;2089009;28;20587;-68
2022/09/15 02:20:32;;;;;;;0.20;0.20;;;;;;;15.78;68.32;100692.94;2089020;28;20045;-68
2022/09/15 02:21:42;;;;;;;0.20;0.20;;;;;;;15.76;68.03;100693.31;2086313;28;20049;-68
2022/09/15 02:22:49;;;;;;;0.28;0.28;;;;;;;15.77;67.10;100694.88;2088647;28;20049;-68
2022/09/15 02:23:57;;;;;;;0.15;0.15;;;;;;;15.78;66.99;100696.44;2089232;28;20569;-68
2022/09/15 02:25:03;;;;;;;0.20;0.20;;;;;;;15.80;66.80;100693.34;2088772;28;20068;-68
2022/09/15 02:26:12;;;;;;;0.17;0.17;;;;;;;15.81;66.37;100690.22;2090361;28;20052;-68
2022/09/15 02:27:21;;;;;;;0.20;0.20;;;;;;;15.82;66.12;100696.47;2088047;28;20499;-68
2022/09/15 02:28:28;;;;;;;0.20;0.20;;;;;;;15.82;65.94;100694.53;2091245;28;20121;-69
2022/09/15 02:29:35;;;;;;;0.15;0.15;;;;;;;15.85;66.01;100693.78;2091011;28;20092;-68
2022/09/15 02:30:40;;;;;;;0.20;0.20;;;;;;;15.88;65.75;100695.75;2089553;28;20060;-68
2022/09/15 02:31:45;;;;;;;0.20;0.20;;;;;;;15.90;65.64;100693.41;2097396;28;20080;-68
2022/09/15 02:32:53;;;;;;;0.20;0.20;;;;;;;15.91;65.73;100694.97;2093346;28;20126;-68
2022/09/15 02:34:00;;;;;;;0.20;0.20;;;;;;;15.92;65.42;100696.53;2092669;28;20057;-68
2022/09/15 02:35:07;;;;;;;0.20;0.20;;;;;;;15.92;65.29;100696.53;2091313;28;20523;-68
2022/09/15 02:36:10;;;;;;;0.20;0.20;;;;;;;15.93;65.26;100698.13;2091291;28;20059;-68
2022/09/15 02:37:14;;;;;;;0.20;0.20;;;;;;;15.92;65.01;100701.97;2091322;28;20056;-69
2022/09/15 02:38:17;;;;;;;0.20;0.20;;;;;;;15.91;64.83;100694.97;2090698;28;20099;-68
2022/09/15 02:39:23;;;;;;;0.20;0.20;;;;;;;15.92;65.05;100701.97;2091898;28;20057;-69
2022/09/15 02:40:27;;;;;;;0.20;0.20;;;;;;;15.92;64.97;100701.97;2090343;28;20053;-68
2022/09/15 02:41:30;;;;;;;0.20;0.20;;;;;;;15.90;65.08;100693.41;2091083;28;20049;-68
2022/09/15 02:42:32;;;;;;;0.10;0.10;;;;;;;15.93;64.99;100700.03;2090866;28;20365;-67
2022/09/15 02:43:44;;;;;;;0.20;0.20;;;;;;;15.91;65.25;100694.97;2091281;28;20045;-67
2022/09/15 02:44:46;;;;;;;0.28;0.28;;;;;;;15.94;65.17;100699.66;2091321;28;20496;-67
2022/09/15 02:45:49;;;;;;;0.20;0.20;;;;;;;15.97;65.00;100693.47;2088248;28;20056;-67
2022/09/15 02:46:53;;;;;;;0.10;0.10;;;;;;;15.97;64.97;100690.72;2089452;28;20088;-68
2022/09/15 02:47:56;;;;;;;0.13;0.13;;;;;;;15.99;65.08;100696.59;2090870;28;20067;-67
2022/09/15 02:48:58;;;;;;;0.20;0.20;;;;;;;15.98;64.97;100697.72;2091334;28;20052;-68
2022/09/15 02:50:01;;;;;;;0.20;0.20;;;;;;;15.99;64.74;100696.59;2090917;28;20520;-68
2022/09/15 02:51:03;;;;;;;0.20;0.20;;;;;;;16.00;64.86;100689.97;2088194;28;20045;-67
2022/09/15 02:52:06;;;;;;;0.20;0.20;;;;;;;16.01;64.66;100699.72;2091020;28;20067;-66
2022/09/15 02:53:08;;;;;;;0.10;0.10;;;;;;;16.02;65.13;100700.47;2089908;28;20056;-67
2022/09/15 02:54:11;;;;;;;0.20;0.20;;;;;;;16.03;64.48;100699.34;2090541;28;20063;-67
2022/09/15 02:55:12;;;;;;;0.20;0.20;;;;;;;16.03;64.24;100697.38;2091002;28;20476;-68
2022/09/15 02:56:16;;;;;;;0.20;0.20;;;;;;;16.04;64.29;100698.97;2089899;28;20428;-68
2022/09/15 02:57:19;;;;;;;0.10;0.10;;;;;;;16.03;64.19;100697.38;2089000;28;21759;-67
2022/09/15 02:58:21;;;;;;;0.20;0.20;;;;;;;16.02;63.81;100706.72;2083645;28;20049;-67
2022/09/15 02:59:24;;;;;;;0.20;0.20;;;;;;;16.04;64.21;100698.97;2089891;28;20071;-67
2022/09/15 03:00:27;;;;;;;0.10;0.10;;;;;;;16.03;63.88;100697.38;2092171;28;20051;-68
2022/09/15 03:01:33;;;;;;;0.20;0.20;;;;;;;16.03;64.04;100702.81;2090495;28;20140;-68
2022/09/15 03:02:36;;;;;;;0.20;0.20;;;;;;;16.02;63.83;100695.03;2090671;28;20052;-68
2022/09/15 03:03:39;;;;;;;0.20;0.20;;;;;;;16.01;63.59;100704.38;2091572;28;20041;-68
2022/09/15 03:04:43;;;;;;;0.10;0.10;;;;;;;16.00;63.50;100702.78;2090345;28;20075;-69
2022/09/15 03:05:46;;;;;;;0.10;0.10;;;;;;;16.00;63.13;100702.78;2091355;28;20423;-69
2022/09/15 03:06:48;;;;;;;0.20;0.20;;;;;;;15.97;62.55;100703.56;2090599;28;20813;-69
2022/09/15 03:07:51;;;;;;;0.20;0.20;;;;;;;15.99;62.55;100702.03;2089722;28;20516;-69
2022/09/15 03:08:55;;;;;;;0.20;0.20;;;;;;;15.99;62.23;100710.19;2089545;28;20743;-69
2022/09/15 03:09:58;;;;;;;0.20;0.20;;;;;;;15.96;61.95;100708.25;2089436;28;20052;-68
2022/09/15 03:11:00;;;;;;;0.10;0.10;;;;;;;15.96;62.26;100712.91;2099829;28;20049;-68
2022/09/15 03:12:04;;;;;;;0.20;0.20;;;;;;;15.97;62.22;100703.56;2098078;28;20052;-68
2022/09/15 03:13:07;;;;;;;0.20;0.20;;;;;;;15.97;62.17;100709.00;2090536;28;20039;-69
2022/09/15 03:14:13;;;;;;;0.20;0.20;;;;;;;15.97;61.52;100715.25;2090118;28;20063;-69
2022/09/15 03:15:21;;;;;;;0.10;0.10;;;;;;;15.96;61.91;100710.19;2087741;28;20135;-69
2022/09/15 03:16:30;;;;;;;0.20;0.20;;;;;;;15.97;61.74;100711.72;2090403;28;20101;-69
2022/09/15 03:17:34;;;;;;;0.30;0.30;;;;;;;15.97;61.84;100707.06;2090658;28;20453;-69
2022/09/15 03:18:40;;;;;;;0.10;0.10;;;;;;;15.98;61.07;100707.88;2090590;28;20075;-69
2022/09/15 03:19:46;;;;;;;0.20;0.20;;;;;;;15.98;60.78;100711.34;2089763;28;20095;-69
2022/09/15 03:20:56;;;;;;;0.10;0.10;;;;;;;15.96;60.48;100718.34;2090404;28;20057;-69
2022/09/15 03:22:02;;;;;;;0.20;0.20;;;;;;;15.97;60.67;100709.78;2088004;28;20045;-69
2022/09/15 03:23:09;;;;;;;0.20;0.20;;;;;;;15.97;60.45;100714.44;2090011;28;20119;-69
2022/09/15 03:24:14;;;;;;;0.20;0.20;;;;;;;15.96;60.38;100708.25;2089780;28;20045;-69
2022/09/15 03:25:25;;;;;;;0.20;0.20;;;;;;;15.97;60.14;100715.25;2091277;28;20435;-69
2022/09/15 03:26:31;;;;;;;0.20;0.20;;;;;;;15.95;60.18;100712.09;2091186;28;20583;-69
2022/09/15 03:27:36;;;;;;;0.10;0.10;;;;;;;15.96;59.88;100721.84;2090748;28;20048;-69
2022/09/15 03:28:39;;;;;;;0.20;0.20;;;;;;;15.95;59.85;100723.00;2090032;28;20148;-69
2022/09/15 03:29:45;;;;;;;0.20;0.20;;;;;;;15.95;59.93;100717.56;2090654;28;20516;-69
2022/09/15 03:30:48;;;;;;;0.20;0.20;;;;;;;15.93;60.08;100719.91;2090575;28;20102;-69
2022/09/15 03:31:56;;;;;;;0.20;0.20;;;;;;;15.91;60.14;100716.75;2089985;28;20049;-69
2022/09/15 03:33:00;;;;;;;0.20;0.20;;;;;;;15.89;60.24;100724.53;2090523;28;20059;-69
2022/09/15 03:34:08;;;;;;;0.17;0.17;;;;;;;15.86;60.14;100725.28;2089697;28;20052;-69
2022/09/15 03:35:12;;;;;;;0.20;0.20;;;;;;;15.83;59.99;100726.03;2090789;28;20080;-69
2022/09/15 03:36:17;;;;;;;0.20;0.20;;;;;;;15.82;59.83;100720.97;2090852;28;20126;-69
2022/09/15 03:37:23;;;;;;;0.30;0.30;;;;;;;15.79;60.65;100714.31;2091170;28;20056;-69
2022/09/15 03:38:27;;;;;;;0.20;0.20;;;;;;;15.77;60.76;100719.38;2089467;28;20052;-69
2022/09/15 03:39:30;;;;;;;0.10;0.10;;;;;;;15.76;61.04;100719.75;2090709;28;20076;-69
2022/09/15 03:40:41;;;;;;;0.20;0.20;;;;;;;15.74;60.81;100713.91;2090131;28;20049;-69
2022/09/15 03:41:44;;;;;;;0.20;0.20;;;;;;;15.71;61.23;100710.00;2090070;28;20136;-69
2022/09/15 03:42:49;;;;;;;0.20;0.20;;;;;;;15.70;61.30;100711.16;2089753;28;20056;-69
2022/09/15 03:43:53;;;;;;;0.10;0.10;;;;;;;15.70;61.51;100705.72;2089431;28;20119;-69
2022/09/15 03:45:00;;;;;;;0.20;0.20;;;;;;;15.69;61.37;100703.38;2089606;28;20096;-69
2022/09/15 03:46:11;;;;;;;0.20;0.20;;;;;;;15.67;61.28;100706.47;2088665;28;20164;-69
2022/09/15 03:47:16;;;;;;;0.20;0.20;;;;;;;15.67;61.49;100701.03;2090808;28;20602;-68
2022/09/15 03:48:26;;;;;;;0.20;0.20;;;;;;;15.67;61.24;100702.97;2089436;28;20052;-69
2022/09/15 03:49:40;;;;;;;0.20;0.20;;;;;;;15.68;61.33;100713.47;2091724;28;20110;-68
2022/09/15 03:50:55;;;;;;;0.20;0.20;;;;;;;15.65;61.57;100708.78;2088066;28;20057;-68
2022/09/15 03:52:02;;;;;;;0.20;0.20;;;;;;;15.67;61.34;100717.34;2090354;28;20060;-68
2022/09/15 03:53:08;;;;;;;0.20;0.20;;;;;;;15.68;61.68;100713.47;2089073;28;20053;-68
2022/09/15 03:54:16;;;;;;;0.20;0.20;;;;;;;15.69;61.66;100717.78;2091354;28;20071;-68
2022/09/15 03:55:24;;;;;;;0.10;0.10;;;;;;;15.70;61.86;100713.09;2090645;28;20921;-68
2022/09/15 03:56:30;;;;;;;0.20;0.20;;;;;;;15.72;61.98;100708.06;2091303;28;20044;-69
2022/09/15 03:57:35;;;;;;;0.20;0.20;;;;;;;15.72;61.96;100714.28;2091302;28;20076;-69
2022/09/15 03:58:39;;;;;;;0.20;0.20;;;;;;;15.73;62.07;100707.69;2090448;28;20057;-69
2022/09/15 03:59:43;;;;;;;0.10;0.10;;;;;;;15.74;62.34;100708.47;2088610;28;20085;-69
2022/09/15 04:00:46;;;;;;;0.10;0.10;;;;;;;15.77;62.47;100713.16;2090649;28;20061;-69
2022/09/15 04:01:52;;;;;;;0.10;0.10;;;;;;;15.75;62.36;100713.53;2090493;28;20056;-69
2022/09/15 04:02:55;;;;;;;0.10;0.10;;;;;;;15.75;62.67;100713.53;2090977;28;20049;-69
2022/09/15 04:03:58;;;;;;;0.10;0.10;;;;;;;15.75;62.88;100712.75;2090020;28;20048;-68
2022/09/15 04:05:01;;;;;;;0.20;0.20;;;;;;;15.73;62.86;100710.41;2089399;28;20053;-68
2022/09/15 04:06:05;;;;;;;0.20;0.20;;;;;;;15.71;63.08;100703.78;2091900;28;20804;-69
2022/09/15 04:07:07;;;;;;;0.20;0.20;;;;;;;15.69;63.00;100698.72;2091946;28;20052;-68
2022/09/15 04:08:13;;;;;;;0.20;0.20;;;;;;;15.68;62.53;100708.03;2091611;28;20045;-69
2022/09/15 04:09:15;;;;;;;0.20;0.20;;;;;;;15.69;62.29;100700.66;2089569;28;20117;-69
2022/09/15 04:10:18;;;;;;;0.20;0.20;;;;;;;15.71;61.55;100706.50;2090970;28;20060;-69
2022/09/15 04:11:21;;;;;;;0.20;0.20;;;;;;;15.72;60.79;100710.78;2091227;28;20090;-69
2022/09/15 04:12:24;;;;;;;0.20;0.20;;;;;;;15.72;60.57;100708.84;2090134;28;20045;-69
2022/09/15 04:13:26;;;;;;;0.20;0.20;;;;;;;15.72;60.12;100714.28;2088946;28;20059;-69
2022/09/15 04:14:30;;;;;;;0.30;0.30;;;;;;;15.72;59.75;100717.00;2084265;28;20124;-69
2022/09/15 04:15:32;;;;;;;0.20;0.20;;;;;;;15.74;59.83;100716.63;2089760;28;20056;-69
2022/09/15 04:16:35;;;;;;;0.38;0.38;;;;;;;15.74;59.45;100714.69;2091078;28;20044;-70
2022/09/15 04:17:37;;;;;;;0.20;0.20;;;;;;;15.75;59.23;100713.53;2089908;28;20139;-69
2022/09/15 04:18:40;;;;;;;0.30;0.30;;;;;;;15.76;59.14;100722.50;2090164;28;20128;-69
2022/09/15 04:19:41;;;;;;;0.30;0.30;;;;;;;15.79;59.40;100719.00;2091197;28;20060;-69
2022/09/15 04:20:46;;;;;;;0.30;0.30;;;;;;;15.79;59.17;100722.50;2089833;28;20048;-69
2022/09/15 04:21:47;;;;;;;0.20;0.20;;;;;;;15.80;59.30;100726.00;2089625;28;20052;-69
2022/09/15 04:22:50;;;;;;;0.38;0.38;;;;;;;15.81;59.59;100728.34;2090735;28;20393;-69
2022/09/15 04:23:53;;;;;;;0.28;0.28;;;;;;;15.81;59.12;100722.91;2088655;28;20051;-69
2022/09/15 04:24:56;;;;;;;0.20;0.20;;;;;;;15.81;59.17;100722.91;2090586;28;20049;-69
2022/09/15 04:26:00;;;;;;;0.30;0.30;;;;;;;15.83;59.33;100717.88;2090603;28;20496;-68
2022/09/15 04:27:03;;;;;;;0.30;0.30;;;;;;;15.81;59.18;100719.41;2087874;28;20064;-69
2022/09/15 04:28:05;;;;;;;0.38;0.38;;;;;;;15.82;59.54;100713.59;2087174;28;20052;-69
2022/09/15 04:29:12;;;;;;;0.20;0.20;;;;;;;15.81;59.24;100714.72;2090562;28;20056;-69
2022/09/15 04:30:15;;;;;;;0.30;0.30;;;;;;;15.79;59.34;100714.31;2090060;28;20489;-69
2022/09/15 04:31:18;;;;;;;0.30;0.30;;;;;;;15.81;59.50;100717.47;2089983;28;20428;-69
2022/09/15 04:32:20;;;;;;;0.30;0.30;;;;;;;15.79;59.15;100727.19;2090479;28;20569;-69
2022/09/15 04:33:23;;;;;;;0.30;0.30;;;;;;;15.79;59.21;100719.00;2087234;28;20056;-69
2022/09/15 04:34:25;;;;;;;0.40;0.40;;;;;;;15.79;59.48;100725.22;2090831;28;20408;-69
2022/09/15 04:35:28;;;;;;;0.30;0.30;;;;;;;15.77;59.85;100724.84;2090024;28;20806;-69
2022/09/15 04:36:31;;;;;;;0.30;0.30;;;;;;;15.79;59.33;100722.50;2086506;28;20044;-69
2022/09/15 04:37:34;;;;;;;0.30;0.30;;;;;;;15.79;59.67;100725.22;2090717;28;20659;-69
2022/09/15 04:38:36;;;;;;;0.30;0.30;;;;;;;15.78;59.60;100717.44;2088687;28;20511;-69
2022/09/15 04:39:39;;;;;;;0.30;0.30;;;;;;;15.77;59.68;100722.09;2090014;28;20045;-69
2022/09/15 04:40:41;;;;;;;0.30;0.30;;;;;;;15.76;59.71;100720.53;2089335;28;20496;-69
2022/09/15 04:41:44;;;;;;;0.30;0.30;;;;;;;15.75;59.81;100716.25;2087344;28;20060;-69
2022/09/15 04:42:46;;;;;;;0.20;0.20;;;;;;;15.74;59.84;100706.53;2089272;28;20056;-69
2022/09/15 04:43:49;;;;;;;0.30;0.30;;;;;;;15.74;59.96;100716.63;2088156;28;20084;-69
2022/09/15 04:44:51;;;;;;;0.30;0.30;;;;;;;15.74;59.91;100711.97;2088167;28;20052;-69
2022/09/15 04:45:55;;;;;;;0.30;0.30;;;;;;;15.73;59.76;100715.84;2089397;28;20057;-69
2022/09/15 04:46:57;;;;;;;0.30;0.30;;;;;;;15.74;59.93;100711.97;2089835;28;20051;-69
2022/09/15 04:48:00;;;;;;;0.20;0.20;;;;;;;15.74;59.99;100711.97;2088673;28;20432;-69
2022/09/15 04:49:02;;;;;;;0.30;0.30;;;;;;;15.70;59.65;100708.44;2090133;28;20057;-69
2022/09/15 04:50:06;;;;;;;0.30;0.30;;;;;;;15.70;59.93;100710.38;2089347;28;20053;-69
2022/09/15 04:51:11;;;;;;;0.32;0.32;;;;;;;15.67;59.96;100711.91;2086878;28;20057;-69
2022/09/15 04:52:15;;;;;;;0.35;0.35;;;;;;;15.65;59.99;100710.75;2089683;28;20053;-69
2022/09/15 04:53:18;;;;;;;0.30;0.30;;;;;;;15.65;60.17;100710.75;2090442;28;20971;-69
2022/09/15 04:54:22;;;;;;;0.20;0.20;;;;;;;15.62;60.43;100701.38;2090639;28;20218;-69
2022/09/15 04:55:26;;;;;;;0.22;0.22;;;;;;;15.60;60.69;100706.41;2088319;28;20102;-69
2022/09/15 04:56:29;;;;;;;0.20;0.20;;;;;;;15.60;60.84;100705.63;2088947;28;20090;-69
2022/09/15 04:57:33;;;;;;;0.20;0.20;;;;;;;15.60;60.75;100703.69;2089365;28;20090;-69
2022/09/15 04:58:38;;;;;;;0.30;0.30;;;;;;;15.59;61.05;100699.41;2089029;28;20053;-69
2022/09/15 04:59:53;;;;;;;0.30;0.30;;;;;;;15.58;61.02;100703.28;2089691;28;20060;-69
2022/09/15 05:00:56;;;;;;;0.30;0.30;;;;;;;15.58;61.32;100703.28;2090474;28;20102;-69
2022/09/15 05:02:01;;;;;;;0.38;0.38;;;;;;;15.60;61.06;100702.91;2088853;28;20057;-69
2022/09/15 05:03:04;;;;;;;0.30;0.30;;;;;;;15.60;60.92;100702.91;2089592;28;20045;-69
2022/09/15 05:04:09;;;;;;;0.20;0.20;;;;;;;15.60;60.97;100703.69;2087288;28;20128;-70
2022/09/15 05:05:13;;;;;;;0.30;0.30;;;;;;;15.58;60.95;100697.06;2090185;28;20121;-68
2022/09/15 05:06:18;;;;;;;0.20;0.20;;;;;;;15.58;61.02;100703.28;2089978;28;20076;-69
2022/09/15 05:07:21;;;;;;;0.30;0.30;;;;;;;15.55;61.32;100697.81;2090601;28;20041;-69